createdAt,value
2019-05-15T00:00:48.021Z,55.27
2019-05-15T00:03:19.781Z,55.75
2019-05-15T00:05:51.710Z,54.56
2019-05-15T00:08:22.776Z,55.05
2019-05-15T00:10:53.856Z,54.02
2019-05-15T00:13:25.430Z,54.71
2019-05-15T00:15:59.018Z,54.59
2019-05-15T00:18:30.387Z,53.98
2019-05-15T00:21:01.587Z,54.35
2019-05-15T00:23:33.355Z,54.56
2019-05-15T00:26:05.643Z,54.95
2019-05-15T00:28:38.818Z,56.01
2019-05-15T00:31:09.833Z,56.48
2019-05-15T00:33:41.237Z,56.72
2019-05-15T00:36:12.349Z,56.43
2019-05-15T00:38:44.063Z,56.86
2019-05-15T00:41:18.342Z,56.69
2019-05-15T00:43:49.541Z,57.01
2019-05-15T00:46:20.758Z,57.35
2019-05-15T00:48:51.922Z,56.28
2019-05-15T00:51:24.094Z,56.60
2019-05-15T00:53:55.494Z,55.84
2019-05-15T00:56:28.535Z,55.76
2019-05-15T00:58:59.617Z,56.28
2019-05-15T01:01:31.829Z,56.75
2019-05-15T01:04:03.938Z,56.54
2019-05-15T01:06:35.401Z,56.72
2019-05-15T01:09:08.337Z,56.39
2019-05-15T01:11:40.779Z,55.94
2019-05-15T01:14:12.425Z,56.98
2019-05-15T01:16:43.460Z,57.27
2019-05-15T01:19:15.111Z,57.43
2019-05-15T01:21:48.104Z,57.59
2019-05-15T01:24:19.448Z,58.83
2019-05-15T01:26:50.572Z,60.65
2019-05-15T01:29:36.482Z,63.90
2019-05-15T01:31:59.122Z,63.75
2019-05-15T01:34:29.895Z,65.38
2019-05-15T01:37:01.275Z,63.60
2019-05-15T01:39:32.451Z,65.09
2019-05-15T01:42:04.368Z,69.19
2019-05-15T01:44:36.308Z,69.22
2019-05-15T01:47:08.506Z,68.91
2019-05-15T01:49:40.147Z,66.76
2019-05-15T01:52:12.068Z,67.94
2019-05-15T01:54:43.230Z,68.42
2019-05-15T01:57:14.657Z,67.35
2019-05-15T01:59:54.788Z,68.24
2019-05-15T02:02:20.397Z,68.59
2019-05-15T02:04:51.817Z,68.13
2019-05-15T02:07:23.601Z,68.20
2019-05-15T02:09:54.788Z,67.97
2019-05-15T02:12:28.593Z,68.64
2019-05-15T02:14:59.186Z,69.01
2019-05-15T02:17:32.000Z,70.73
2019-05-15T02:20:04.053Z,68.87
2019-05-15T02:22:35.217Z,70.06
2019-05-15T02:25:08.613Z,69.13
2019-05-15T02:27:40.183Z,72.15
2019-05-15T02:30:22.406Z,73.42
2019-05-15T02:32:45.428Z,72.19
2019-05-15T02:35:18.578Z,72.23
2019-05-15T02:37:50.078Z,73.22
2019-05-15T02:40:22.035Z,73.20
2019-05-15T02:42:53.752Z,72.40
2019-05-15T02:45:25.274Z,73.60
2019-05-15T02:47:59.468Z,73.84
2019-05-15T02:50:29.417Z,75.27
2019-05-15T02:53:00.947Z,73.95
2019-05-15T02:55:32.022Z,74.50
2019-05-15T02:58:03.058Z,76.28
2019-05-15T03:00:43.906Z,75.19
2019-05-15T03:03:09.473Z,75.77
2019-05-15T03:05:41.242Z,75.72
2019-05-15T03:08:12.808Z,77.55
2019-05-15T03:10:44.023Z,75.93
2019-05-15T03:13:18.780Z,77.10
2019-05-15T03:15:49.281Z,77.38
2019-05-15T03:18:21.061Z,77.80
2019-05-15T03:20:52.436Z,78.25
2019-05-15T03:23:23.871Z,79.66
2019-05-15T03:25:55.469Z,80.74
2019-05-15T03:28:29.499Z,79.97
2019-05-15T03:31:26.245Z,81.05
2019-05-15T03:33:45.477Z,81.80
2019-05-15T03:36:14.279Z,81.56
2019-05-15T03:38:49.601Z,81.70
2019-05-15T03:41:19.711Z,83.38
2019-05-15T03:43:51.028Z,83.76
2019-05-15T03:46:22.079Z,82.88
2019-05-15T03:48:53.780Z,84.40
2019-05-15T03:51:24.998Z,83.75
2019-05-15T03:54:00.068Z,84.16
2019-05-15T03:56:29.749Z,84.03
2019-05-15T03:59:01.460Z,84.65
2019-05-15T04:01:38.797Z,85.17
2019-05-15T04:04:09.438Z,85.50
2019-05-15T04:06:39.667Z,84.76
2019-05-15T04:09:12.222Z,86.13
2019-05-15T04:11:43.808Z,84.93
2019-05-15T04:14:15.264Z,86.22
2019-05-15T04:16:49.535Z,86.10
2019-05-15T04:19:20.113Z,85.35
2019-05-15T04:21:51.596Z,86.07
2019-05-15T04:24:25.818Z,86.05
2019-05-15T04:27:00.024Z,86.46
2019-05-15T04:29:32.284Z,86.05
2019-05-15T04:32:05.961Z,86.39
2019-05-15T04:34:39.475Z,87.37
2019-05-15T04:37:09.796Z,87.16
2019-05-15T04:39:41.063Z,87.10
2019-05-15T04:42:12.902Z,86.85
2019-05-15T04:44:44.662Z,88.01
2019-05-15T04:47:19.006Z,86.74
2019-05-15T04:49:50.364Z,88.24
2019-05-15T04:52:22.796Z,89.08
2019-05-15T04:54:54.256Z,88.04
2019-05-15T04:57:29.044Z,88.20
2019-05-15T04:59:59.590Z,88.07
2019-05-15T05:02:32.400Z,88.83
2019-05-15T05:05:09.681Z,88.48
2019-05-15T05:07:39.547Z,88.15
2019-05-15T05:10:11.465Z,89.40
2019-05-15T05:12:43.112Z,89.06
2019-05-15T05:15:14.600Z,89.53
2019-05-15T05:17:45.972Z,89.22
2019-05-15T05:20:17.929Z,89.69
2019-05-15T05:22:49.507Z,89.94
2019-05-15T05:25:21.336Z,89.95
2019-05-15T05:27:52.817Z,90.03
2019-05-15T05:30:24.075Z,89.86
2019-05-15T05:32:57.920Z,90.35
2019-05-15T05:35:28.860Z,89.72
2019-05-15T05:38:00.628Z,89.74
2019-05-15T05:40:32.431Z,90.85
2019-05-15T05:43:03.841Z,89.66
2019-05-15T05:45:35.247Z,90.61
2019-05-15T05:48:08.824Z,90.35
2019-05-15T05:50:44.314Z,90.32
2019-05-15T05:53:15.125Z,90.77
2019-05-15T05:55:46.099Z,90.74
2019-05-15T05:58:19.653Z,90.14
2019-05-15T06:00:51.098Z,90.65
2019-05-15T06:03:22.343Z,91.34
2019-05-15T06:05:54.096Z,91.79
2019-05-15T06:08:25.029Z,90.93
2019-05-15T06:10:58.327Z,91.48
2019-05-15T06:13:29.250Z,92.11
2019-05-15T06:16:00.577Z,91.83
2019-05-15T06:18:32.416Z,91.20
2019-05-15T06:21:03.258Z,91.25
2019-05-15T06:23:36.217Z,91.63
2019-05-15T06:26:09.608Z,91.62
2019-05-15T06:28:41.017Z,91.44
2019-05-15T06:31:12.299Z,91.81
2019-05-15T06:33:44.710Z,91.51
2019-05-15T06:36:17.989Z,91.38
2019-05-15T06:38:49.623Z,92.02
2019-05-15T06:41:21.497Z,91.90
2019-05-15T06:43:53.158Z,92.36
2019-05-15T06:46:24.956Z,92.10
2019-05-15T06:48:58.123Z,92.74
2019-05-15T06:51:30.292Z,92.41
2019-05-15T06:54:03.951Z,92.23
2019-05-15T06:56:35.371Z,91.45
2019-05-15T06:59:08.667Z,91.69
2019-05-15T07:01:40.703Z,91.15
2019-05-15T07:04:12.424Z,91.47
2019-05-15T07:06:44.068Z,91.30
2019-05-15T07:09:17.958Z,91.44
2019-05-15T07:11:49.202Z,91.91
2019-05-15T07:14:20.624Z,91.14
2019-05-15T07:16:51.649Z,91.38
2019-05-15T07:19:22.607Z,91.26
2019-05-15T07:21:54.330Z,90.34
2019-05-15T07:24:25.269Z,91.06
2019-05-15T07:26:58.945Z,90.91
2019-05-15T07:29:29.474Z,91.17
2019-05-15T07:32:00.269Z,90.83
2019-05-15T07:34:33.787Z,90.50
2019-05-15T07:37:04.607Z,91.27
2019-05-15T07:39:35.362Z,90.92
2019-05-15T07:42:08.445Z,90.84
2019-05-15T07:44:39.101Z,91.19
2019-05-15T07:47:09.793Z,91.50
2019-05-15T07:49:41.507Z,91.85
2019-05-15T07:52:12.348Z,91.98
2019-05-15T07:54:43.181Z,92.31
2019-05-15T07:57:13.837Z,92.38
2019-05-15T07:59:44.535Z,91.62
2019-05-15T08:02:15.365Z,91.87
2019-05-15T08:04:48.270Z,92.37
2019-05-15T08:07:19.333Z,92.35
2019-05-15T08:09:50.876Z,92.47
2019-05-15T08:12:21.600Z,92.30
2019-05-15T08:14:52.571Z,91.62
2019-05-15T08:17:28.973Z,92.49
2019-05-15T08:20:02.591Z,92.44
2019-05-15T08:22:34.928Z,92.50
2019-05-15T08:25:11.296Z,91.79
2019-05-15T08:27:40.221Z,92.05
2019-05-15T08:30:14.050Z,92.05
2019-05-15T08:32:45.301Z,91.87
2019-05-15T08:35:19.179Z,92.14
2019-05-15T08:37:50.937Z,92.21
2019-05-15T08:40:21.927Z,92.12
2019-05-15T08:42:58.687Z,92.05
2019-05-15T08:45:25.298Z,91.12
2019-05-15T08:47:58.509Z,91.23
2019-05-15T08:50:28.864Z,90.78
2019-05-15T08:52:59.877Z,90.59
2019-05-15T08:55:30.978Z,91.03
2019-05-15T08:58:07.855Z,90.64
2019-05-15T09:00:34.585Z,91.42
2019-05-15T09:03:08.567Z,90.78
2019-05-15T09:05:39.417Z,91.00
2019-05-15T09:08:10.757Z,89.84
2019-05-15T09:10:41.773Z,90.63
2019-05-15T09:13:12.701Z,91.30
2019-05-15T09:15:44.121Z,89.55
2019-05-15T09:18:17.289Z,90.08
2019-05-15T09:20:49.499Z,89.80
2019-05-15T09:23:20.670Z,90.19
2019-05-15T09:25:51.618Z,90.72
2019-05-15T09:28:22.877Z,89.98
2019-05-15T09:30:53.529Z,89.69
2019-05-15T09:33:24.453Z,89.95
2019-05-15T09:35:54.984Z,89.61
2019-05-15T09:38:25.885Z,89.29
2019-05-15T09:40:58.540Z,90.09
2019-05-15T09:43:29.481Z,89.59
2019-05-15T09:46:00.190Z,88.77
2019-05-15T09:48:31.499Z,89.02
2019-05-15T09:51:02.177Z,89.46
2019-05-15T09:53:34.653Z,89.39
2019-05-15T09:56:08.079Z,89.49
2019-05-15T09:58:38.998Z,90.01
2019-05-15T10:01:09.779Z,89.73
2019-05-15T10:03:44.324Z,89.68
2019-05-15T10:06:13.798Z,88.78
2019-05-15T10:08:48.724Z,88.76
2019-05-15T10:11:19.737Z,89.54
2019-05-15T10:13:50.840Z,89.06
2019-05-15T10:16:21.737Z,88.56
2019-05-15T10:18:52.527Z,88.41
2019-05-15T10:21:28.705Z,87.70
2019-05-15T10:23:58.828Z,88.12
2019-05-15T10:26:28.651Z,88.12
2019-05-15T10:28:59.578Z,88.20
2019-05-15T10:31:30.458Z,88.43
2019-05-15T10:34:02.524Z,88.72
2019-05-15T10:36:33.498Z,88.38
2019-05-15T10:39:08.381Z,89.11
2019-05-15T10:41:39.401Z,88.73
2019-05-15T10:44:10.419Z,87.83
2019-05-15T10:46:41.270Z,87.62
2019-05-15T10:49:12.480Z,87.34
2019-05-15T10:51:43.240Z,88.07
2019-05-15T10:54:14.403Z,87.85
2019-05-15T10:56:45.994Z,87.22
2019-05-15T10:59:18.299Z,87.01
2019-05-15T11:01:49.780Z,87.47
2019-05-15T11:04:22.033Z,86.89
2019-05-15T11:06:53.066Z,87.24
2019-05-15T11:09:24.075Z,86.54
2019-05-15T11:11:54.985Z,86.58
2019-05-15T11:14:28.474Z,86.78
2019-05-15T11:16:59.006Z,87.12
2019-05-15T11:19:36.100Z,86.79
2019-05-15T11:22:03.433Z,86.85
2019-05-15T11:24:34.332Z,87.42
2019-05-15T11:27:05.558Z,86.94
2019-05-15T11:29:38.189Z,87.24
2019-05-15T11:32:08.968Z,86.46
2019-05-15T11:34:39.999Z,86.50
2019-05-15T11:37:11.319Z,86.92
2019-05-15T11:39:46.136Z,87.31
2019-05-15T11:42:14.827Z,86.77
2019-05-15T11:44:48.311Z,86.31
2019-05-15T11:47:18.557Z,86.43
2019-05-15T11:49:49.503Z,86.16
2019-05-15T11:52:20.564Z,85.73
2019-05-15T11:54:51.696Z,86.13
2019-05-15T11:57:37.338Z,86.42
2019-05-15T11:59:59.439Z,86.53
2019-05-15T12:02:30.845Z,85.71
2019-05-15T12:05:02.202Z,85.93
2019-05-15T12:07:33.277Z,85.94
2019-05-15T12:10:09.851Z,85.21
2019-05-15T12:12:38.912Z,85.43
2019-05-15T12:15:10.658Z,85.57
2019-05-15T12:17:42.085Z,85.44
2019-05-15T12:20:13.480Z,85.04
2019-05-15T12:22:44.341Z,85.42
2019-05-15T12:25:18.000Z,85.69
2019-05-15T12:27:49.239Z,85.23
2019-05-15T12:30:21.888Z,84.92
2019-05-15T12:32:52.737Z,85.36
2019-05-15T12:35:30.489Z,84.02
2019-05-15T12:38:04.385Z,84.40
2019-05-15T13:01:16.518Z,84.02
2019-05-15T13:03:35.585Z,84.02
2019-05-15T13:06:08.081Z,83.90
2019-05-15T13:08:48.899Z,84.38
2019-05-15T13:11:23.798Z,84.27
2019-05-15T13:13:54.618Z,84.04
2019-05-15T13:16:28.011Z,84.13
2019-05-15T13:18:58.789Z,84.23
2019-05-15T13:21:29.845Z,83.85
2019-05-15T13:24:01.868Z,83.57
2019-05-15T13:26:32.778Z,83.03
2019-05-15T13:29:03.551Z,83.71
2019-05-15T13:31:34.440Z,83.06
2019-05-15T13:34:07.962Z,82.71
2019-05-15T13:36:39.261Z,82.49
2019-05-15T13:39:10.377Z,82.67
2019-05-15T13:41:41.466Z,82.50
2019-05-15T13:44:12.525Z,82.70
2019-05-15T13:46:43.190Z,82.07
2019-05-15T13:49:14.059Z,81.74
2019-05-15T13:51:44.329Z,81.87
2019-05-15T13:54:14.440Z,82.06
2019-05-15T13:56:44.258Z,81.17
2019-05-15T13:59:14.321Z,80.50
2019-05-15T14:01:44.292Z,80.93
2019-05-15T14:04:14.256Z,80.06
2019-05-15T14:06:44.336Z,79.73
2019-05-15T14:09:14.795Z,79.96
2019-05-15T14:11:44.979Z,79.67
2019-05-15T14:14:14.830Z,80.49
2019-05-15T14:16:45.152Z,79.78
2019-05-15T14:19:15.400Z,80.52
2019-05-15T14:21:45.448Z,79.91
2019-05-15T14:24:15.455Z,80.22
2019-05-15T14:26:45.216Z,79.56
2019-05-15T14:29:15.129Z,80.48
2019-05-15T14:31:48.351Z,80.40
2019-05-15T14:34:18.724Z,79.65
2019-05-15T14:36:48.703Z,79.59
2019-05-15T14:39:21.007Z,79.32
2019-05-15T14:41:50.814Z,79.38
2019-05-15T14:44:21.830Z,79.08
2019-05-15T14:46:52.086Z,78.84
2019-05-15T14:49:33.295Z,78.68
2019-05-15T14:52:08.890Z,78.88
2019-05-15T14:54:35.142Z,78.78
2019-05-15T14:57:05.100Z,78.38
2019-05-15T14:59:34.803Z,78.90
2019-05-15T15:02:04.930Z,78.46
2019-05-15T15:04:34.687Z,78.09
2019-05-15T15:07:05.019Z,78.72
2019-05-15T15:09:34.845Z,78.16
2019-05-15T15:12:04.977Z,78.30
2019-05-15T15:14:34.859Z,78.57
2019-05-15T15:17:04.981Z,78.21
2019-05-15T15:19:35.100Z,77.22
2019-05-15T15:22:05.191Z,76.03
2019-05-15T15:24:35.109Z,76.13
2019-05-15T15:27:05.131Z,76.26
2019-05-15T15:29:35.273Z,77.20
2019-05-15T15:32:05.492Z,76.47
2019-05-15T15:34:35.288Z,76.21
2019-05-15T15:37:08.231Z,77.40
2019-05-15T15:39:38.700Z,75.74
2019-05-15T15:42:08.943Z,76.31
2019-05-15T15:44:39.580Z,76.65
2019-05-15T15:47:09.780Z,75.07
2019-05-15T15:49:40.100Z,75.05
2019-05-15T15:52:10.363Z,75.66
2019-05-15T15:54:40.793Z,75.28
2019-05-15T15:57:11.592Z,74.99
2019-05-15T15:59:42.296Z,74.54
2019-05-15T16:02:12.546Z,75.20
2019-05-15T16:04:42.784Z,74.37
2019-05-15T16:07:17.807Z,75.06
2019-05-15T16:09:48.681Z,75.14
2019-05-15T16:12:19.002Z,74.43
2019-05-15T16:14:49.427Z,74.08
2019-05-15T16:17:19.661Z,74.80
2019-05-15T16:19:50.279Z,74.91
2019-05-15T16:22:20.283Z,75.15
2019-05-15T16:24:51.812Z,74.91
2019-05-15T16:27:22.188Z,74.40
2019-05-15T16:29:53.651Z,74.69
2019-05-15T16:32:24.707Z,74.67
2019-05-15T16:34:55.778Z,75.89
2019-05-15T16:37:26.436Z,75.12
2019-05-15T16:39:57.853Z,74.92
2019-05-15T16:42:28.645Z,75.38
2019-05-15T16:44:59.457Z,74.98
2019-05-15T16:47:30.193Z,75.09
2019-05-15T16:50:01.233Z,75.00
2019-05-15T16:52:31.647Z,73.82
2019-05-15T16:55:02.488Z,72.05
2019-05-15T16:57:32.743Z,69.52
2019-05-15T17:00:03.588Z,70.15
2019-05-15T17:02:35.183Z,70.60
2019-05-15T17:05:06.144Z,70.04
2019-05-15T17:07:38.833Z,70.60
2019-05-15T17:10:08.904Z,73.71
2019-05-15T17:12:40.287Z,73.72
2019-05-15T17:15:11.212Z,74.00
2019-05-15T17:17:41.467Z,74.95
2019-05-15T17:20:19.135Z,76.85
2019-05-15T17:23:19.950Z,76.61
2019-05-15T17:25:58.919Z,77.75
2019-05-15T17:28:30.568Z,79.62
2019-05-15T17:31:01.042Z,79.01
2019-05-15T17:33:30.966Z,79.99
2019-05-15T17:36:01.224Z,81.57
2019-05-15T17:38:31.960Z,80.92
2019-05-15T17:41:02.626Z,81.23
2019-05-15T17:43:32.913Z,81.75
2019-05-15T17:46:02.882Z,82.81
2019-05-15T17:48:32.816Z,83.83
2019-05-15T17:51:02.860Z,83.34
2019-05-15T17:53:32.674Z,84.97
2019-05-15T17:56:02.653Z,85.30
2019-05-15T17:58:32.818Z,85.86
2019-05-15T18:01:02.855Z,87.27
2019-05-15T18:03:32.752Z,87.20
2019-05-15T18:06:02.670Z,86.98
2019-05-15T18:08:32.474Z,87.25
2019-05-15T18:11:02.414Z,87.17
2019-05-15T18:13:32.808Z,87.97
2019-05-15T18:16:04.544Z,88.24
2019-05-15T18:18:34.821Z,88.70
2019-05-15T18:21:04.809Z,88.33
2019-05-15T18:23:35.849Z,87.77
2019-05-15T18:26:05.570Z,87.89
2019-05-15T18:28:38.578Z,88.63
2019-05-15T18:31:09.167Z,88.37
2019-05-15T18:33:53.097Z,87.68
2019-05-15T18:36:13.953Z,88.75
2019-05-15T18:38:44.983Z,88.95
2019-05-15T18:41:17.990Z,88.93
2019-05-15T18:43:48.739Z,89.43
2019-05-15T18:46:19.515Z,89.72
2019-05-15T18:48:50.256Z,90.35
2019-05-15T18:51:21.011Z,89.86
2019-05-15T18:53:51.862Z,90.35
2019-05-15T18:56:22.772Z,90.07
2019-05-15T18:58:54.056Z,90.88
2019-05-15T19:01:25.099Z,91.44
2019-05-15T19:03:58.167Z,91.06
2019-05-15T19:06:29.359Z,90.64
2019-05-15T19:09:00.832Z,90.45
2019-05-15T19:11:33.489Z,91.02
2019-05-15T19:14:04.682Z,90.96
2019-05-15T19:16:38.710Z,91.68
2019-05-15T19:19:09.675Z,91.53
2019-05-15T19:21:40.937Z,91.69
2019-05-15T19:24:11.791Z,91.51
2019-05-15T19:26:43.379Z,91.67
2019-05-15T19:29:17.821Z,91.80
2019-05-15T19:31:48.528Z,92.36
2019-05-15T19:34:19.630Z,92.20
2019-05-15T19:36:50.464Z,92.12
2019-05-15T19:39:23.282Z,92.57
2019-05-15T19:41:58.278Z,92.28
2019-05-15T19:44:29.693Z,92.39
2019-05-15T19:47:02.958Z,92.44
2019-05-15T19:49:33.919Z,92.78
2019-05-15T19:52:05.039Z,92.74
2019-05-15T19:54:38.222Z,92.96
2019-05-15T19:57:12.815Z,92.72
2019-05-15T19:59:44.725Z,92.71
2019-05-15T20:02:28.566Z,93.20
2019-05-15T20:05:18.422Z,93.27
2019-05-15T20:08:03.226Z,93.35
2019-05-15T20:10:50.070Z,93.47
2019-05-15T20:13:49.669Z,93.74
2019-05-15T20:16:28.593Z,93.20
2019-05-15T20:19:02.791Z,93.06
2019-05-15T20:21:34.454Z,93.74
2019-05-15T20:24:08.498Z,93.49
2019-05-15T20:26:40.061Z,93.63
2019-05-15T20:29:14.189Z,93.59
2019-05-15T20:31:48.205Z,93.99
2019-05-15T20:34:18.238Z,93.80
2019-05-15T20:36:49.437Z,94.25
2019-05-15T20:39:21.205Z,93.93
2019-05-15T20:42:08.864Z,94.04
2019-05-15T20:45:08.378Z,93.90
2019-05-15T20:47:43.677Z,93.86
2019-05-15T20:50:15.231Z,94.01
2019-05-15T20:52:48.833Z,93.93
2019-05-15T20:55:19.098Z,93.89
2019-05-15T20:58:01.424Z,94.12
2019-05-15T21:00:40.795Z,94.10
2019-05-15T21:03:23.190Z,94.35
2019-05-15T21:05:57.737Z,94.45
2019-05-15T21:08:31.795Z,94.46
2019-05-15T21:11:04.073Z,94.63
2019-05-15T21:13:35.396Z,94.39
2019-05-15T21:16:08.342Z,94.46
2019-05-15T21:18:41.548Z,94.28
2019-05-15T21:21:12.834Z,94.60
2019-05-15T21:23:44.138Z,94.55
2019-05-15T21:26:18.605Z,94.64
2019-05-15T21:28:49.619Z,94.74
2019-05-15T21:31:22.106Z,94.84
2019-05-15T21:33:53.432Z,94.75
2019-05-15T21:36:24.863Z,94.83
2019-05-15T21:38:58.516Z,94.98
2019-05-15T21:41:29.299Z,94.80
2019-05-15T21:44:01.061Z,94.78
2019-05-15T21:46:32.702Z,94.91
2019-05-15T21:49:04.031Z,94.70
2019-05-15T21:51:35.357Z,94.94
2019-05-15T21:54:06.705Z,94.90
2019-05-15T21:56:38.766Z,94.56
2019-05-15T21:59:09.848Z,94.52
2019-05-15T22:01:42.181Z,94.80
2019-05-15T22:04:13.839Z,94.79
2019-05-15T22:06:45.632Z,95.21
2019-05-15T22:09:18.705Z,95.11
2019-05-15T22:11:50.217Z,95.05
2019-05-15T22:14:21.605Z,94.97
2019-05-15T22:16:53.145Z,94.78
2019-05-15T22:19:25.054Z,94.64
2019-05-15T22:21:58.205Z,94.55
2019-05-15T22:24:29.182Z,94.53
2019-05-15T22:27:00.092Z,94.60
2019-05-15T22:29:31.544Z,94.51
2019-05-15T22:32:03.100Z,94.86
2019-05-15T22:34:34.437Z,94.76
2019-05-15T22:37:08.950Z,94.90
2019-05-15T22:39:39.702Z,95.18
2019-05-15T22:42:11.622Z,95.09
2019-05-15T22:44:42.807Z,95.37
2019-05-15T22:47:13.766Z,95.31
2019-05-15T22:49:45.063Z,95.25
2019-05-15T22:52:18.454Z,95.41
2019-05-15T22:54:49.150Z,95.50
2019-05-15T22:57:20.266Z,95.50
2019-05-15T22:59:51.322Z,95.37
2019-05-15T23:02:22.836Z,95.45
2019-05-15T23:04:54.419Z,95.49
2019-05-15T23:07:28.008Z,95.72
2019-05-15T23:09:59.192Z,95.69
2019-05-15T23:12:30.619Z,95.55
2019-05-15T23:15:02.300Z,95.33
2019-05-15T23:17:33.581Z,95.30
2019-05-15T23:20:08.667Z,95.23
2019-05-15T23:22:40.307Z,95.13
2019-05-15T23:25:12.035Z,95.17
2019-05-15T23:27:43.768Z,95.40
2019-05-15T23:30:14.933Z,95.58
2019-05-15T23:32:48.637Z,95.68
2019-05-15T23:35:19.258Z,95.73
2019-05-15T23:37:50.300Z,95.56
2019-05-15T23:40:21.582Z,95.59
2019-05-15T23:42:53.181Z,95.76
2019-05-15T23:45:24.581Z,95.66
2019-05-15T23:47:57.991Z,95.61
2019-05-15T23:50:29.047Z,95.73
2019-05-15T23:53:00.439Z,95.51
2019-05-15T23:55:32.013Z,95.53
2019-05-15T23:58:03.871Z,95.47
